EST,Max TemperatureF,Mean TemperatureF,Min TemperatureF,Max Dew PointF,MeanDew PointF,Min DewpointF,Max Humidity, Mean Humidity, Min Humidity, Max Sea Level PressureIn, Mean Sea Level PressureIn, Min Sea Level PressureIn, Max VisibilityMiles, Mean VisibilityMiles, Min VisibilityMiles, Max Wind SpeedMPH, Mean Wind SpeedMPH, Max Gust SpeedMPH,PrecipitationIn, CloudCover, Events, WindDirDegrees
2012-11-1,53,42,28,27,18,3,86,46,13,29.96,29.90,29.85,10,10,10,13,6,24,0.00,0,,316
2012-11-2,66,47,28,36,31,23,93,61,28,30.03,29.94,29.88,10,10,10,17,2,31,0.00,2,,302
2012-11-3,71,50,28,45,35,27,100,71,26,30.14,30.06,30.01,10,10,10,10,1,18,0.00,0,,274
2012-11-4,62,52,41,52,42,36,93,67,48,30.03,30.00,29.95,10,10,5,13,3,18,0.00,2,,300
2012-11-5,59,44,28,34,28,16,100,67,20,30.10,30.04,29.97,10,10,7,6,2,,0.00,1,,284
2012-11-6,44,40,35,37,35,32,100,80,66,30.05,29.98,29.91,10,10,5,5,0,,0.20,8,Rain,299
2012-11-7,50,44,37,39,35,32,100,74,54,30.03,29.91,29.84,10,9,5,12,2,16,0.08,7,Rain,300
2012-11-8,59,42,26,36,28,21,100,71,23,30.21,30.13,30.04,10,9,0,10,3,,0.00,1,Fog,283
2012-11-9,64,44,23,34,27,18,100,72,16,30.33,30.25,30.19,10,10,7,4,0,,0.00,0,,243
2012-11-10,71,48,26,34,27,16,100,66,12,30.40,30.34,30.26,10,10,7,8,1,,0.00,0,,121
2012-11-11,62,44,26,46,37,25,93,71,45,30.47,30.40,30.36,10,10,7,12,1,22,0.00,3,,129
2012-11-12,60,52,44,55,50,41,100,79,63,30.35,30.27,30.20,10,9,2,12,4,20,0.37,8,Rain,145
2012-11-13,53,40,28,41,31,27,100,72,38,30.36,30.31,30.26,10,10,10,10,4,,0.01,3,,276
2012-11-14,53,38,23,36,28,21,100,76,38,30.42,30.33,30.25,10,9,0,6,0,,0.00,2,Fog,72
2012-11-15,60,46,32,36,33,30,100,69,36,30.28,30.24,30.16,10,10,7,8,0,,0.00,3,,295
2012-11-16,60,45,30,36,31,19,100,73,22,30.36,30.28,30.21,10,10,7,7,0,,0.00,3,,303
2012-11-17,60,42,23,32,25,12,100,73,15,30.45,30.39,30.32,10,10,7,5,0,,0.00,0,,226
2012-11-18,60,40,21,37,28,19,100,73,27,30.45,30.38,30.30,10,10,7,5,0,,0.00,0,,117
2012-11-19,62,45,28,45,36,28,100,87,48,30.37,30.29,30.20,10,7,0,6,0,,0.00,4,Fog-Snow,170
2012-11-20,62,47,32,43,34,30,100,72,30,30.22,30.14,30.06,10,9,2,9,1,18,0.00,4,,288
2012-11-21,64,46,28,37,33,28,100,74,32,30.21,30.16,30.11,10,10,10,8,1,,0.00,1,,310
2012-11-22,64,45,26,37,31,25,100,77,28,30.29,30.22,30.15,10,10,7,6,0,,0.00,0,,275
2012-11-23,60,42,24,45,32,23,100,74,42,30.21,30.12,30.01,10,10,7,13,2,22,0.00,2,Rain,294
2012-11-24,44,32,21,28,18,9,86,53,23,30.11,30.07,30.04,10,10,10,13,7,22,0.00,1,,302
2012-11-25,55,36,17,23,16,0,93,64,10,30.17,30.10,30.02,10,10,10,5,0,,0.00,0,,250
2012-11-26,64,42,19,39,23,12,93,61,15,30.23,30.16,30.11,10,10,10,6,0,,0.01,2,Rain,110
2012-11-27,50,44,39,45,41,36,100,86,71,30.23,30.16,30.10,10,9,5,8,1,,0.04,8,Rain,281
2012-11-28,53,38,23,36,27,12,100,72,21,30.38,30.31,30.21,10,10,7,7,1,,0.00,2,,283
2012-11-29,59,39,19,32,25,16,93,75,31,30.46,30.38,30.29,10,10,7,5,0,,0.00,0,,96
2012-11-30,57,39,21,36,27,18,100,78,33,30.41,30.35,30.27,10,9,0,5,0,,0.00,1,Fog,302